createdAt,value
2022-11-08T00:00:05.320Z,95.20
2022-11-08T00:02:32.065Z,95.20
2022-11-08T00:04:58.671Z,95.20
2022-11-08T00:07:43.710Z,95.20
2022-11-08T00:10:29.124Z,95.20
2022-11-08T00:13:14.487Z,95.20
2022-11-08T00:15:40.987Z,95.20
2022-11-08T00:18:08.048Z,95.20
2022-11-08T00:20:34.902Z,95.20
2022-11-08T00:23:01.664Z,95.20
2022-11-08T00:25:28.421Z,95.20
2022-11-08T00:27:54.972Z,95.20
2022-11-08T00:30:21.498Z,95.20
2022-11-08T00:32:48.123Z,95.20
2022-11-08T00:35:14.917Z,95.10
2022-11-08T00:37:41.481Z,95.20
2022-11-08T00:40:08.461Z,95.20
2022-11-08T00:42:35.071Z,95.20
2022-11-08T00:45:01.723Z,95.10
2022-11-08T00:47:28.294Z,95.10
2022-11-08T00:49:54.802Z,95.10
2022-11-08T00:52:21.338Z,95.10
2022-11-08T00:54:47.906Z,95.10
2022-11-08T00:57:14.496Z,95.10
2022-11-08T00:59:40.998Z,95.10
2022-11-08T01:02:07.613Z,95.10
2022-11-08T01:04:34.229Z,95.10
2022-11-08T01:07:00.868Z,95.10
2022-11-08T01:09:27.428Z,95.10
2022-11-08T01:11:53.969Z,95.10
2022-11-08T01:14:20.486Z,95.10
2022-11-08T01:16:47.019Z,95.10
2022-11-08T01:19:13.554Z,95.10
2022-11-08T01:21:40.127Z,95.10
2022-11-08T01:24:07.222Z,95.10
2022-11-08T01:26:34.058Z,95.10
2022-11-08T01:29:00.620Z,95.10
2022-11-08T01:31:30.424Z,95.10
2022-11-08T01:33:58.149Z,95.00
2022-11-08T01:36:26.523Z,95.00
2022-11-08T01:38:54.039Z,95.10
2022-11-08T01:41:22.118Z,95.00
2022-11-08T01:43:53.885Z,95.00
2022-11-08T01:46:34.018Z,95.00
2022-11-08T01:49:24.513Z,95.00
2022-11-08T01:51:54.623Z,95.00
2022-11-08T01:54:31.545Z,95.00
2022-11-08T01:57:00.525Z,95.00
2022-11-08T01:59:27.374Z,95.00
2022-11-08T02:01:53.992Z,95.00
2022-11-08T02:04:20.691Z,95.00
2022-11-08T02:06:47.310Z,95.00
2022-11-08T02:09:17.741Z,95.00
2022-11-08T02:11:44.886Z,95.00
2022-11-08T02:14:11.696Z,95.00
2022-11-08T02:16:38.358Z,95.00
2022-11-08T02:19:11.501Z,95.00
2022-11-08T02:21:53.446Z,95.00
2022-11-08T02:24:19.995Z,95.00
2022-11-08T02:26:47.186Z,95.00
2022-11-08T02:29:29.869Z,95.00
2022-11-08T02:31:57.752Z,94.90
2022-11-08T02:34:34.695Z,95.30
2022-11-08T02:37:03.109Z,95.00
2022-11-08T02:39:29.993Z,95.00
2022-11-08T02:41:56.514Z,95.00
2022-11-08T02:44:23.032Z,94.90
2022-11-08T02:46:49.571Z,94.90
2022-11-08T02:49:16.103Z,94.90
2022-11-08T02:51:42.877Z,94.90
2022-11-08T02:54:09.421Z,94.90
2022-11-08T02:56:35.941Z,94.90
2022-11-08T02:59:02.453Z,94.90
2022-11-08T03:01:29.172Z,94.90
2022-11-08T03:03:55.789Z,94.90
2022-11-08T03:06:22.324Z,95.20
2022-11-08T03:08:48.856Z,94.90
2022-11-08T03:11:15.618Z,94.90
2022-11-08T03:13:42.140Z,94.90
2022-11-08T03:16:08.793Z,94.90
2022-11-08T03:18:35.352Z,94.90
2022-11-08T03:21:01.894Z,94.90
2022-11-08T03:23:28.541Z,94.90
2022-11-08T03:25:55.323Z,94.90
2022-11-08T03:28:23.358Z,94.90
2022-11-08T03:30:52.285Z,94.90
2022-11-08T03:33:20.622Z,94.90
2022-11-08T03:35:48.449Z,95.20
2022-11-08T03:38:16.042Z,94.90
2022-11-08T03:40:43.163Z,94.90
2022-11-08T03:43:09.826Z,94.90
2022-11-08T03:45:36.422Z,94.90
2022-11-08T03:48:03.220Z,94.90
2022-11-08T03:50:29.770Z,94.90
2022-11-08T03:52:57.050Z,94.90
2022-11-08T03:55:25.993Z,94.90
2022-11-08T03:57:53.373Z,94.90
2022-11-08T04:00:22.398Z,94.90
2022-11-08T04:02:49.229Z,95.20
2022-11-08T04:05:16.292Z,94.90
2022-11-08T04:07:43.201Z,94.90
2022-11-08T04:10:11.088Z,94.90
2022-11-08T04:13:00.517Z,94.90
2022-11-08T04:15:28.449Z,94.90
2022-11-08T04:18:13.820Z,94.90
2022-11-08T04:21:03.698Z,94.80
2022-11-08T04:23:32.089Z,94.80
2022-11-08T04:26:01.136Z,94.80
2022-11-08T04:28:30.470Z,94.80
2022-11-08T04:31:02.978Z,94.90
2022-11-08T04:33:29.659Z,94.90
2022-11-08T04:36:01.630Z,94.90
2022-11-08T04:38:28.165Z,94.80
2022-11-08T04:41:10.522Z,94.80
2022-11-08T04:43:37.098Z,94.80
2022-11-08T04:46:06.312Z,94.80
2022-11-08T04:48:33.109Z,94.80
2022-11-08T04:51:08.528Z,94.80
2022-11-08T04:53:35.393Z,94.80
2022-11-08T04:56:04.286Z,94.80
2022-11-08T04:58:39.717Z,94.80
2022-11-08T05:01:08.287Z,94.80
2022-11-08T05:03:35.580Z,94.80
2022-11-08T05:06:03.980Z,94.80
2022-11-08T05:08:30.900Z,94.80
2022-11-08T05:11:06.173Z,94.80
2022-11-08T05:13:33.832Z,94.80
2022-11-08T05:16:07.032Z,94.80
2022-11-08T05:18:34.482Z,94.80
2022-11-08T05:21:20.859Z,94.80
2022-11-08T05:23:48.762Z,94.80
2022-11-08T05:26:17.307Z,94.80
2022-11-08T05:28:43.841Z,94.80
2022-11-08T05:31:10.508Z,94.70
2022-11-08T05:33:37.188Z,94.70
2022-11-08T05:36:06.285Z,94.80
2022-11-08T05:38:33.382Z,94.70
2022-11-08T05:41:04.498Z,94.80
2022-11-08T05:43:31.267Z,94.80
2022-11-08T05:45:58.048Z,94.70
2022-11-08T05:48:24.702Z,94.80
2022-11-08T05:50:51.574Z,94.80
2022-11-08T05:53:18.676Z,94.80
2022-11-08T05:55:45.777Z,94.70
2022-11-08T05:58:12.345Z,94.70
2022-11-08T06:00:38.894Z,94.70
2022-11-08T06:03:06.291Z,94.70
2022-11-08T06:05:33.612Z,94.70
2022-11-08T06:08:00.265Z,94.70
2022-11-08T06:10:26.849Z,94.70
2022-11-08T06:12:57.866Z,94.70
2022-11-08T06:15:24.393Z,94.70
2022-11-08T06:17:50.906Z,94.70
2022-11-08T06:20:17.519Z,94.70
2022-11-08T06:22:45.714Z,94.70
2022-11-08T06:25:12.237Z,94.70
2022-11-08T06:27:38.827Z,94.70
2022-11-08T06:30:06.040Z,94.70
2022-11-08T06:32:32.547Z,94.70
2022-11-08T06:34:59.069Z,94.70
2022-11-08T06:37:25.600Z,94.70
2022-11-08T06:39:52.177Z,94.70
2022-11-08T06:42:18.727Z,94.70
2022-11-08T06:44:45.277Z,94.80
2022-11-08T06:47:11.826Z,94.70
2022-11-08T06:49:38.372Z,94.80
2022-11-08T06:52:04.931Z,94.70
2022-11-08T06:54:31.484Z,94.70
2022-11-08T06:57:00.356Z,93.40
2022-11-08T06:59:27.393Z,93.00
2022-11-08T07:01:55.039Z,92.80
2022-11-08T07:04:21.826Z,92.60
2022-11-08T07:06:48.362Z,92.70
2022-11-08T07:09:14.894Z,92.60
2022-11-08T07:11:41.449Z,92.60
2022-11-08T07:14:07.974Z,92.50
2022-11-08T07:16:34.508Z,92.50
2022-11-08T07:19:01.097Z,92.60
2022-11-08T07:21:27.666Z,92.40
2022-11-08T07:23:54.206Z,92.50
2022-11-08T07:26:20.851Z,92.60
2022-11-08T07:28:47.542Z,92.60
2022-11-08T07:31:14.122Z,92.50
2022-11-08T07:33:40.647Z,92.60
2022-11-08T07:36:07.434Z,92.60
2022-11-08T07:38:34.007Z,92.60
2022-11-08T07:41:01.737Z,92.60
2022-11-08T07:43:29.568Z,92.60
2022-11-08T07:45:59.247Z,92.80
2022-11-08T07:48:27.455Z,93.30
2022-11-08T07:50:54.221Z,93.60
2022-11-08T07:53:21.398Z,93.50
2022-11-08T07:55:48.357Z,93.60
2022-11-08T07:58:16.346Z,93.60
2022-11-08T08:00:44.364Z,93.60
2022-11-08T08:03:13.645Z,93.60
2022-11-08T08:05:43.141Z,93.60
2022-11-08T08:08:11.156Z,93.60
2022-11-08T08:10:38.381Z,93.60
2022-11-08T08:13:06.279Z,93.60
2022-11-08T08:15:33.045Z,93.60
2022-11-08T08:18:01.062Z,93.60
2022-11-08T08:20:28.077Z,93.70
2022-11-08T08:22:54.606Z,93.60
2022-11-08T08:25:21.159Z,92.90
2022-11-08T08:27:49.254Z,92.70
2022-11-08T08:30:17.585Z,92.60
2022-11-08T08:32:47.915Z,92.80
2022-11-08T08:35:20.213Z,93.10
2022-11-08T08:37:46.755Z,93.30
2022-11-08T08:40:13.335Z,93.50
2022-11-08T08:42:39.871Z,93.60
2022-11-08T08:45:12.062Z,93.60
2022-11-08T08:47:42.255Z,93.60
2022-11-08T08:50:09.357Z,93.60
2022-11-08T08:52:35.961Z,93.50
2022-11-08T08:55:02.560Z,93.50
2022-11-08T08:57:29.204Z,93.50
2022-11-08T09:02:42.980Z,93.60
2022-11-08T09:05:10.874Z,93.60
2022-11-08T09:07:37.410Z,93.60
2022-11-08T09:10:05.745Z,93.60
2022-11-08T09:12:32.649Z,93.60
2022-11-08T09:14:59.166Z,93.60
2022-11-08T09:17:27.540Z,93.60
2022-11-08T09:19:57.172Z,93.60
2022-11-08T09:22:24.265Z,93.60
2022-11-08T09:24:51.170Z,93.60
2022-11-08T09:27:17.738Z,93.60
2022-11-08T09:29:44.283Z,93.60
2022-11-08T09:32:11.114Z,93.60
2022-11-08T09:34:37.684Z,93.60
2022-11-08T09:37:04.218Z,93.60
2022-11-08T09:39:30.779Z,93.60
2022-11-08T09:42:22.215Z,93.60
2022-11-08T09:45:15.848Z,93.60
2022-11-08T09:47:49.055Z,93.60
2022-11-08T09:50:39.405Z,93.50
2022-11-08T09:53:27.850Z,93.50
2022-11-08T09:56:02.126Z,93.50
2022-11-08T09:58:37.734Z,93.50
2022-11-08T10:01:04.766Z,93.50
2022-11-08T10:03:31.414Z,93.60
2022-11-08T10:06:15.783Z,93.50
2022-11-08T10:08:57.277Z,93.50
2022-11-08T10:11:32.820Z,93.50
2022-11-08T10:13:59.302Z,93.50
2022-11-08T10:16:34.627Z,93.50
2022-11-08T10:19:38.302Z,93.50
2022-11-08T10:22:44.893Z,93.50
2022-11-08T10:25:30.453Z,93.50
2022-11-08T10:28:00.849Z,93.50
2022-11-08T10:30:40.928Z,93.50
2022-11-08T10:33:42.246Z,93.50
2022-11-08T10:36:19.875Z,93.50
2022-11-08T10:39:14.107Z,93.60
2022-11-08T10:41:48.440Z,93.60
2022-11-08T10:44:20.813Z,93.60
2022-11-08T10:46:50.477Z,93.70
2022-11-08T10:49:22.621Z,93.60
2022-11-08T10:51:54.064Z,93.60
2022-11-08T10:54:56.507Z,93.60
2022-11-08T10:57:42.287Z,93.60
2022-11-08T11:00:21.029Z,93.60
2022-11-08T11:02:56.878Z,93.70
2022-11-08T11:05:31.008Z,93.90
2022-11-08T11:08:02.321Z,94.00
2022-11-08T11:10:46.498Z,94.10
2022-11-08T11:16:03.023Z,94.30
2022-11-08T11:18:39.079Z,94.40
2022-11-08T11:21:22.829Z,94.50
2022-11-08T11:23:55.114Z,94.60
2022-11-08T11:26:34.150Z,94.70
2022-11-08T11:29:06.850Z,94.80
2022-11-08T11:31:35.860Z,94.80
2022-11-08T11:34:29.798Z,94.90
2022-11-08T11:37:08.677Z,94.90
2022-11-08T11:39:54.232Z,95.00
2022-11-08T11:42:45.873Z,95.10
2022-11-08T11:45:32.076Z,95.10
2022-11-08T11:48:04.543Z,95.20
2022-11-08T11:50:36.812Z,95.10
2022-11-08T11:53:15.317Z,95.10
2022-11-08T11:55:56.762Z,95.10
2022-11-08T11:58:56.997Z,95.00
2022-11-08T12:02:01.812Z,95.00
2022-11-08T12:04:47.010Z,95.00
2022-11-08T12:07:32.921Z,94.90
2022-11-08T12:10:28.322Z,94.90
2022-11-08T12:13:13.421Z,94.90
2022-11-08T12:15:55.818Z,94.90
2022-11-08T12:18:45.971Z,95.10
2022-11-08T12:21:23.082Z,94.80
2022-11-08T12:24:27.345Z,94.80
2022-11-08T12:27:28.200Z,94.80
2022-11-08T12:29:57.756Z,94.80
2022-11-08T12:32:41.829Z,94.80
2022-11-08T12:35:48.473Z,94.80
2022-11-08T12:38:24.138Z,94.80
2022-11-08T12:41:23.229Z,94.70
2022-11-08T12:43:58.935Z,94.70
2022-11-08T12:46:29.139Z,94.70
2022-11-08T12:49:20.766Z,94.70
2022-11-08T12:52:13.769Z,94.70
2022-11-08T12:54:48.042Z,94.70
2022-11-08T12:57:17.676Z,94.70
2022-11-08T12:59:58.141Z,94.70
2022-11-08T13:02:29.950Z,94.90
2022-11-08T13:05:02.505Z,95.10
2022-11-08T13:07:41.032Z,95.20
2022-11-08T13:10:13.003Z,95.40
2022-11-08T13:13:23.068Z,95.50
2022-11-08T13:16:12.729Z,95.60
2022-11-08T13:18:52.275Z,95.70
2022-11-08T13:21:27.995Z,95.80
2022-11-08T13:24:42.796Z,95.80
2022-11-08T13:27:21.226Z,95.80
2022-11-08T13:29:47.802Z,95.90
2022-11-08T13:32:43.276Z,96.00
2022-11-08T13:35:15.849Z,96.00
2022-11-08T13:38:01.254Z,96.00
2022-11-08T13:40:55.861Z,96.10
2022-11-08T13:43:29.416Z,96.10
2022-11-08T13:45:56.378Z,96.10
2022-11-08T13:48:33.333Z,96.20
2022-11-08T13:51:22.903Z,96.20
2022-11-08T13:53:53.005Z,96.20
2022-11-08T13:56:41.403Z,96.30
2022-11-08T13:59:29.692Z,96.30
2022-11-08T14:02:03.461Z,96.30
2022-11-08T14:04:40.494Z,96.30
2022-11-08T14:07:31.411Z,96.30
2022-11-08T14:10:11.656Z,96.30
2022-11-08T14:12:41.158Z,96.30
2022-11-08T14:15:20.854Z,96.50
2022-11-08T14:17:52.662Z,96.10
2022-11-08T14:20:28.582Z,96.00
2022-11-08T14:22:55.395Z,96.00
2022-11-08T14:25:28.382Z,96.00
2022-11-08T14:27:56.926Z,96.00
2022-11-08T14:30:24.068Z,95.90
2022-11-08T14:33:20.643Z,95.80
2022-11-08T14:36:09.014Z,95.80
2022-11-08T14:38:37.959Z,95.80
2022-11-08T14:41:06.841Z,95.80
2022-11-08T14:43:43.366Z,95.80
2022-11-08T14:46:16.257Z,95.70
2022-11-08T14:48:50.533Z,95.70
2022-11-08T14:51:17.170Z,95.70
2022-11-08T14:53:49.623Z,95.70
2022-11-08T14:56:19.742Z,95.60
2022-11-08T14:58:47.730Z,95.60
2022-11-08T15:01:16.786Z,95.50
2022-11-08T15:03:53.083Z,95.60
2022-11-08T15:06:20.057Z,95.50
2022-11-08T15:08:52.516Z,95.90
2022-11-08T15:11:31.212Z,95.50
2022-11-08T15:14:07.072Z,95.50
2022-11-08T15:16:42.125Z,95.50
2022-11-08T15:19:31.966Z,95.50
2022-11-08T15:22:01.310Z,95.50
2022-11-08T15:24:37.516Z,95.50
2022-11-08T15:27:10.029Z,95.50
2022-11-08T15:30:04.242Z,95.50
2022-11-08T15:32:36.652Z,95.40
2022-11-08T15:35:04.756Z,95.40
2022-11-08T15:37:39.971Z,95.40
2022-11-08T15:40:18.671Z,95.40
2022-11-08T15:42:51.051Z,95.40
2022-11-08T15:45:17.534Z,95.40
2022-11-08T15:47:46.322Z,95.40
2022-11-08T15:50:24.798Z,95.30
2022-11-08T15:52:54.941Z,95.40
2022-11-08T15:55:37.109Z,95.30
2022-11-08T15:58:04.569Z,95.30
2022-11-08T16:00:33.147Z,95.30
2022-11-08T16:02:59.929Z,95.30
2022-11-08T16:05:29.206Z,95.30
2022-11-08T16:07:56.061Z,95.60
2022-11-08T16:10:29.954Z,95.20
2022-11-08T16:12:58.732Z,95.20
2022-11-08T16:15:26.914Z,95.20
2022-11-08T16:17:53.442Z,95.20
2022-11-08T16:20:36.953Z,95.20
2022-11-08T16:23:09.016Z,95.20
2022-11-08T16:25:39.209Z,95.20
2022-11-08T16:28:11.702Z,95.20
2022-11-08T16:30:38.461Z,95.20
2022-11-08T16:33:24.989Z,95.20
2022-11-08T16:35:54.961Z,95.20
2022-11-08T16:38:39.517Z,95.40
2022-11-08T16:41:06.407Z,95.60
2022-11-08T16:43:33.462Z,95.70
2022-11-08T16:46:06.286Z,95.70
2022-11-08T16:48:35.834Z,95.90
2022-11-08T16:51:05.454Z,96.00
2022-11-08T16:53:32.814Z,96.10
2022-11-08T16:55:59.400Z,96.10
2022-11-08T16:58:27.767Z,96.20
2022-11-08T17:00:55.583Z,96.30
2022-11-08T17:03:24.491Z,96.30
2022-11-08T17:05:52.069Z,96.40
2022-11-08T17:08:18.975Z,96.50
2022-11-08T17:10:45.821Z,96.60
2022-11-08T17:13:17.516Z,96.70
2022-11-08T17:15:44.654Z,96.70
2022-11-08T17:18:15.299Z,96.70
2022-11-08T17:20:42.380Z,96.80
2022-11-08T17:23:10.814Z,96.80
2022-11-08T17:25:40.182Z,96.80
2022-11-08T17:28:06.743Z,96.90
2022-11-08T17:30:33.802Z,96.90
2022-11-08T17:33:00.337Z,97.00
2022-11-08T17:35:26.849Z,97.00
2022-11-08T17:37:53.588Z,97.00
2022-11-08T17:40:20.244Z,97.00
2022-11-08T17:42:46.797Z,97.10
2022-11-08T17:45:13.337Z,97.10
2022-11-08T17:47:39.884Z,97.00
2022-11-08T17:50:08.323Z,97.10
2022-11-08T17:52:34.884Z,97.00
2022-11-08T17:55:01.487Z,97.00
2022-11-08T17:57:27.997Z,96.90
2022-11-08T17:59:54.625Z,96.90
2022-11-08T18:02:21.276Z,96.80
2022-11-08T18:04:47.893Z,96.80
2022-11-08T18:07:14.507Z,96.70
2022-11-08T18:09:41.087Z,96.60
2022-11-08T18:12:07.663Z,96.60
2022-11-08T18:14:34.550Z,96.50
2022-11-08T18:17:01.628Z,96.50
2022-11-08T18:19:28.158Z,96.40
2022-11-08T18:21:54.734Z,96.40
2022-11-08T18:24:21.273Z,96.40
2022-11-08T18:26:47.950Z,96.40
2022-11-08T18:29:14.481Z,96.30
2022-11-08T18:31:40.987Z,96.30
2022-11-08T18:34:07.706Z,96.30
2022-11-08T18:36:34.698Z,96.20
2022-11-08T18:39:02.435Z,96.30
2022-11-08T18:41:31.298Z,96.20
2022-11-08T18:43:59.259Z,96.20
2022-11-08T18:46:28.246Z,96.10
2022-11-08T18:48:55.269Z,96.10
2022-11-08T18:51:23.514Z,96.10
2022-11-08T18:53:52.227Z,96.10
2022-11-08T18:56:19.254Z,96.10
2022-11-08T18:58:45.827Z,96.00
2022-11-08T19:01:12.798Z,96.00
2022-11-08T19:03:39.502Z,96.00
2022-11-08T19:06:06.809Z,96.10
2022-11-08T19:08:33.978Z,96.80
2022-11-08T19:11:09.522Z,96.70
2022-11-08T19:13:37.962Z,96.90
2022-11-08T19:16:06.137Z,96.90
2022-11-08T19:18:33.763Z,96.80
2022-11-08T19:21:20.439Z,96.90
2022-11-08T19:23:48.219Z,96.90
2022-11-08T19:26:17.442Z,96.90
2022-11-08T19:28:47.763Z,97.00
2022-11-08T19:31:16.669Z,97.00
2022-11-08T19:33:43.186Z,96.90
2022-11-08T19:36:13.887Z,97.00
2022-11-08T19:38:41.297Z,97.00
2022-11-08T19:41:16.363Z,97.10
2022-11-08T19:43:43.453Z,97.00
2022-11-08T19:46:20.809Z,97.00
2022-11-08T19:48:49.243Z,97.10
2022-11-08T19:51:21.394Z,97.30
2022-11-08T19:53:47.973Z,97.90
2022-11-08T19:56:17.420Z,98.50
2022-11-08T19:58:44.353Z,99.00
2022-11-08T20:01:28.377Z,99.30
2022-11-08T20:03:56.369Z,99.30
2022-11-08T20:06:23.183Z,99.40
2022-11-08T20:08:53.762Z,99.60
2022-11-08T20:11:26.207Z,99.70
2022-11-08T20:13:53.150Z,99.80
2022-11-08T20:16:23.717Z,99.90
2022-11-08T20:18:50.427Z,99.90
2022-11-08T20:21:17.613Z,99.90
2022-11-08T20:23:44.702Z,99.90
2022-11-08T20:26:18.168Z,99.90
2022-11-08T20:28:55.898Z,99.90
2022-11-08T20:31:24.568Z,99.90
2022-11-08T20:33:53.163Z,99.90
2022-11-08T20:36:22.316Z,99.90
2022-11-08T20:38:49.330Z,99.90
2022-11-08T20:41:17.737Z,99.90
2022-11-08T20:43:46.550Z,99.90
2022-11-08T20:46:18.983Z,99.90
2022-11-08T20:48:50.642Z,99.90
2022-11-08T20:51:18.931Z,99.90
2022-11-08T20:53:45.790Z,99.90
2022-11-08T20:56:18.145Z,99.90
2022-11-08T20:58:45.874Z,99.90
2022-11-08T21:01:16.955Z,99.90
2022-11-08T21:03:45.544Z,99.90
2022-11-08T21:06:14.983Z,99.90
2022-11-08T21:11:29.992Z,99.90
2022-11-08T21:13:56.553Z,99.90
2022-11-08T21:16:33.337Z,99.90
2022-11-08T21:19:05.437Z,99.90
2022-11-08T21:21:32.888Z,99.90
2022-11-08T21:23:59.412Z,99.90
2022-11-08T21:26:26.434Z,99.90
2022-11-08T21:28:53.147Z,99.90
2022-11-08T21:31:19.862Z,99.90
2022-11-08T21:33:46.483Z,99.90
2022-11-08T21:36:13.403Z,99.90
2022-11-08T21:38:40.409Z,99.90
2022-11-08T21:41:08.977Z,99.90
2022-11-08T21:43:37.514Z,99.90
2022-11-08T21:46:25.950Z,99.90
2022-11-08T21:48:54.528Z,99.90
2022-11-08T21:51:21.210Z,99.90
2022-11-08T21:53:54.718Z,99.90
2022-11-08T21:56:24.060Z,99.90
2022-11-08T21:58:50.846Z,99.90
2022-11-08T22:01:17.880Z,99.90
2022-11-08T22:03:45.383Z,99.90
2022-11-08T22:06:11.951Z,99.90
2022-11-08T22:08:38.461Z,99.90
2022-11-08T22:11:05.371Z,99.90
2022-11-08T22:13:31.914Z,99.90
2022-11-08T22:15:58.480Z,99.90
2022-11-08T22:18:42.966Z,99.90
2022-11-08T22:21:30.390Z,99.90
2022-11-08T22:23:56.938Z,99.90
2022-11-08T22:26:23.490Z,99.90
2022-11-08T22:28:50.036Z,99.90
2022-11-08T22:31:16.560Z,99.90
2022-11-08T22:33:43.077Z,99.90
2022-11-08T22:36:09.747Z,99.90
2022-11-08T22:38:36.294Z,99.90
2022-11-08T22:41:03.044Z,99.90
2022-11-08T22:43:29.597Z,99.90
2022-11-08T22:45:56.110Z,99.90
2022-11-08T22:48:22.712Z,99.90
2022-11-08T22:50:49.337Z,99.90
2022-11-08T22:53:16.123Z,99.90
2022-11-08T22:55:44.734Z,99.90
2022-11-08T22:58:11.982Z,99.90
2022-11-08T23:00:38.481Z,99.90
2022-11-08T23:03:05.178Z,99.90
2022-11-08T23:05:31.698Z,99.90
2022-11-08T23:07:58.220Z,99.90
2022-11-08T23:10:24.983Z,99.90
2022-11-08T23:13:10.005Z,99.90
2022-11-08T23:15:55.292Z,99.90
2022-11-08T23:18:23.133Z,99.90
2022-11-08T23:21:12.290Z,99.90
2022-11-08T23:23:57.564Z,99.90
2022-11-08T23:26:42.982Z,99.90
2022-11-08T23:29:28.754Z,99.90
2022-11-08T23:31:55.647Z,99.90
2022-11-08T23:34:22.385Z,99.90
2022-11-08T23:36:48.927Z,99.90
2022-11-08T23:39:15.467Z,99.90
2022-11-08T23:42:00.476Z,99.90
2022-11-08T23:44:27.642Z,99.90
2022-11-08T23:46:56.859Z,99.90
2022-11-08T23:49:23.596Z,99.90
2022-11-08T23:51:50.794Z,99.90
2022-11-08T23:54:17.641Z,99.90
2022-11-08T23:56:44.799Z,99.90
2022-11-08T23:59:12.135Z,99.90
